createdAt,value
2023-12-28T00:00:08.187Z,3.32
2023-12-28T00:02:36.365Z,3.36
2023-12-28T00:05:06.540Z,3.52
2023-12-28T00:07:34.680Z,3.58
2023-12-28T00:10:03.489Z,3.67
2023-12-28T00:12:31.773Z,3.71
2023-12-28T00:14:59.994Z,3.70
2023-12-28T00:17:28.094Z,3.73
2023-12-28T00:19:57.059Z,3.81
2023-12-28T00:22:26.541Z,3.85
2023-12-28T00:24:54.911Z,3.85
2023-12-28T00:27:23.054Z,3.93
2023-12-28T00:29:51.410Z,3.92
2023-12-28T00:32:19.667Z,4.03
2023-12-28T00:34:47.919Z,4.07
2023-12-28T00:37:16.105Z,4.14
2023-12-28T00:39:48.363Z,4.09
2023-12-28T00:42:16.659Z,4.11
2023-12-28T00:44:44.850Z,4.09
2023-12-28T00:47:13.006Z,4.13
2023-12-28T00:49:41.235Z,4.08
2023-12-28T00:52:09.389Z,4.09
2023-12-28T00:54:38.906Z,4.02
2023-12-28T00:57:08.414Z,3.98
2023-12-28T00:59:36.575Z,3.99
2023-12-28T01:02:04.907Z,3.94
2023-12-28T01:04:33.212Z,3.88
2023-12-28T01:07:03.245Z,3.85
2023-12-28T01:09:33.487Z,3.92
2023-12-28T01:12:01.668Z,3.97
2023-12-28T01:14:31.268Z,3.99
2023-12-28T01:16:59.369Z,4.03
2023-12-28T01:19:27.605Z,3.90
2023-12-28T01:21:55.779Z,4.08
2023-12-28T01:24:24.085Z,4.14
2023-12-28T01:26:52.281Z,4.26
2023-12-28T01:29:20.829Z,4.38
2023-12-28T01:31:50.869Z,4.46
2023-12-28T01:34:19.056Z,4.49
2023-12-28T01:36:47.423Z,4.58
2023-12-28T01:39:16.460Z,4.83
2023-12-28T01:41:46.227Z,4.92
2023-12-28T01:44:14.679Z,4.94
2023-12-28T01:46:43.490Z,5.12
2023-12-28T01:49:13.183Z,5.22
2023-12-28T01:51:43.615Z,5.24
2023-12-28T01:54:11.953Z,5.18
2023-12-28T01:56:40.459Z,5.13
2023-12-28T01:59:08.951Z,5.12
2023-12-28T02:01:37.271Z,5.30
2023-12-28T02:04:05.815Z,5.85
2023-12-28T02:06:36.529Z,6.46
2023-12-28T02:09:04.733Z,7.02
2023-12-28T02:11:33.065Z,7.37
2023-12-28T02:14:01.750Z,7.71
2023-12-28T02:16:35.760Z,7.86
2023-12-28T02:19:15.693Z,7.77
2023-12-28T02:21:45.281Z,7.76
2023-12-28T02:24:13.412Z,7.87
2023-12-28T02:26:43.023Z,7.85
2023-12-28T02:32:14.440Z,7.66
2023-12-28T02:34:46.853Z,7.59
2023-12-28T02:37:18.475Z,7.52
2023-12-28T02:39:49.191Z,7.52
2023-12-28T02:42:17.573Z,7.53
2023-12-28T02:44:45.792Z,7.56
2023-12-28T02:47:15.437Z,7.76
2023-12-28T02:49:43.748Z,7.78
2023-12-28T02:52:12.074Z,7.77
2023-12-28T02:54:40.254Z,7.80
2023-12-28T02:57:08.429Z,7.73
2023-12-28T02:59:37.013Z,7.71
2023-12-28T03:02:05.456Z,7.67
2023-12-28T03:04:34.937Z,7.65
2023-12-28T03:07:03.127Z,7.67
2023-12-28T03:09:31.323Z,7.64
2023-12-28T03:11:59.516Z,7.61
2023-12-28T03:14:27.660Z,7.57
2023-12-28T03:16:55.794Z,7.53
2023-12-28T03:19:24.083Z,7.47
2023-12-28T03:21:53.810Z,7.45
2023-12-28T03:24:22.179Z,7.51
2023-12-28T03:26:50.352Z,7.51
2023-12-28T03:29:18.737Z,7.50
2023-12-28T03:31:46.956Z,7.52
2023-12-28T03:34:16.084Z,7.68
2023-12-28T03:36:44.364Z,7.71
2023-12-28T03:39:14.831Z,7.77
2023-12-28T03:41:43.073Z,7.69
2023-12-28T03:44:11.678Z,7.73
2023-12-28T03:46:40.151Z,7.62
2023-12-28T03:49:08.432Z,7.64
2023-12-28T03:51:36.702Z,7.63
2023-12-28T03:54:05.100Z,7.69
2023-12-28T03:56:36.786Z,7.62
2023-12-28T03:59:05.034Z,7.65
2023-12-28T04:01:35.735Z,7.65
2023-12-28T04:04:04.434Z,7.69
2023-12-28T04:06:32.693Z,7.67
2023-12-28T04:09:00.830Z,7.68
2023-12-28T04:11:28.985Z,7.62
2023-12-28T04:13:58.478Z,7.57
2023-12-28T04:16:26.723Z,7.56
2023-12-28T04:18:54.959Z,7.50
2023-12-28T04:21:23.227Z,7.53
2023-12-28T04:23:51.412Z,7.56
2023-12-28T04:26:20.594Z,7.56
2023-12-28T04:28:48.904Z,7.55
2023-12-28T04:31:18.476Z,7.57
2023-12-28T04:33:47.308Z,7.58
2023-12-28T04:36:15.615Z,7.66
2023-12-28T04:38:43.749Z,7.65
2023-12-28T04:41:12.983Z,7.64
2023-12-28T04:43:41.421Z,7.63
2023-12-28T04:46:09.657Z,7.65
2023-12-28T04:48:39.331Z,7.65
2023-12-28T04:51:07.709Z,7.74
2023-12-28T04:53:36.070Z,7.68
2023-12-28T04:56:04.293Z,7.65
2023-12-28T04:58:32.435Z,7.68
2023-12-28T05:01:00.645Z,7.65
2023-12-28T05:03:28.812Z,7.67
2023-12-28T05:05:58.400Z,7.72
2023-12-28T05:08:26.573Z,7.72
2023-12-28T05:10:54.675Z,7.69
2023-12-28T05:13:23.160Z,7.69
2023-12-28T05:15:51.377Z,7.73
2023-12-28T05:18:19.591Z,7.82
2023-12-28T05:20:47.806Z,7.81
2023-12-28T05:23:17.322Z,7.82
2023-12-28T05:25:47.326Z,7.78
2023-12-28T05:28:15.482Z,7.76
2023-12-28T05:30:43.759Z,7.77
2023-12-28T05:33:12.325Z,7.79
2023-12-28T05:35:40.537Z,7.76
2023-12-28T05:38:08.718Z,7.70
2023-12-28T05:40:38.292Z,7.69
2023-12-28T05:43:06.409Z,7.64
2023-12-28T05:45:34.711Z,7.69
2023-12-28T05:48:03.253Z,7.74
2023-12-28T05:50:32.043Z,7.74
2023-12-28T05:53:00.238Z,7.75
2023-12-28T05:55:28.450Z,7.75
2023-12-28T05:57:58.270Z,7.78
2023-12-28T06:00:26.800Z,7.69
2023-12-28T06:02:54.926Z,7.67
2023-12-28T06:05:23.065Z,7.66
2023-12-28T06:07:51.217Z,7.65
2023-12-28T06:10:19.320Z,7.67
2023-12-28T06:12:47.468Z,7.66
2023-12-28T06:15:17.107Z,7.70
2023-12-28T06:17:45.453Z,7.71
2023-12-28T06:20:13.831Z,7.73
2023-12-28T06:22:42.247Z,7.77
2023-12-28T06:25:10.621Z,7.76
2023-12-28T06:27:38.772Z,7.75
2023-12-28T06:30:08.429Z,7.72
2023-12-28T06:32:38.058Z,7.73
2023-12-28T06:35:07.245Z,7.71
2023-12-28T06:37:35.414Z,7.69
2023-12-28T06:40:04.098Z,7.66
2023-12-28T06:42:32.235Z,7.69
2023-12-28T06:45:00.376Z,7.67
2023-12-28T06:47:28.592Z,7.66
2023-12-28T06:49:58.254Z,7.73
2023-12-28T06:52:26.501Z,7.76
2023-12-28T06:54:54.877Z,7.81
2023-12-28T06:57:23.047Z,7.78
2023-12-28T06:59:51.576Z,7.76
2023-12-28T07:02:19.687Z,7.74
2023-12-28T07:04:47.893Z,7.73
2023-12-28T07:07:17.438Z,7.73
2023-12-28T07:09:46.060Z,7.72
2023-12-28T07:12:14.225Z,7.74
2023-12-28T07:14:42.479Z,7.75
2023-12-28T07:17:13.122Z,7.74
2023-12-28T07:19:41.566Z,7.63
2023-12-28T07:22:09.776Z,7.84
2023-12-28T07:24:39.382Z,7.82
2023-12-28T07:27:07.523Z,7.85
2023-12-28T07:29:35.757Z,7.87
2023-12-28T07:33:12.854Z,7.82
2023-12-28T07:35:41.478Z,7.86
2023-12-28T07:38:09.596Z,7.90
2023-12-28T07:40:37.669Z,7.88
2023-12-28T07:43:05.910Z,7.92
2023-12-28T07:45:34.233Z,7.95
2023-12-28T07:48:02.569Z,7.98
2023-12-28T07:50:32.396Z,8.04
2023-12-28T07:53:01.344Z,8.05
2023-12-28T07:55:29.523Z,8.06
2023-12-28T07:57:57.998Z,8.09
2023-12-28T08:00:26.430Z,8.14
2023-12-28T08:02:54.561Z,8.18
2023-12-28T08:05:22.719Z,8.21
2023-12-28T08:07:52.271Z,8.26
2023-12-28T08:10:20.473Z,8.29
2023-12-28T08:12:48.658Z,8.29
2023-12-28T08:15:17.168Z,8.26
2023-12-28T08:17:45.319Z,8.32
2023-12-28T08:20:13.729Z,8.29
2023-12-28T08:22:41.908Z,8.34
2023-12-28T08:25:11.775Z,8.39
2023-12-28T08:27:40.071Z,8.41
2023-12-28T08:30:09.514Z,8.49
2023-12-28T08:32:37.768Z,8.52
2023-12-28T08:35:07.873Z,8.39
2023-12-28T08:37:36.276Z,8.31
2023-12-28T08:40:05.594Z,8.32
2023-12-28T08:42:35.627Z,8.36
2023-12-28T08:45:03.883Z,8.33
2023-12-28T08:47:32.150Z,8.37
2023-12-28T08:50:00.497Z,8.40
2023-12-28T08:52:28.786Z,8.41
2023-12-28T08:54:57.134Z,8.34
2023-12-28T08:57:35.444Z,8.26
2023-12-28T09:00:12.825Z,8.10
2023-12-28T09:02:40.960Z,8.01
2023-12-28T09:05:09.632Z,7.94
2023-12-28T09:07:39.726Z,7.88
2023-12-28T09:10:08.624Z,7.84
2023-12-28T09:12:37.181Z,7.84
2023-12-28T09:15:06.632Z,7.82
2023-12-28T09:17:36.494Z,7.83
2023-12-28T09:20:07.433Z,7.88
2023-12-28T09:22:35.769Z,7.84
2023-12-28T09:25:04.005Z,7.87
2023-12-28T09:27:32.573Z,7.94
2023-12-28T09:30:01.232Z,7.93
2023-12-28T09:32:29.397Z,7.93
2023-12-28T09:34:59.181Z,7.95
2023-12-28T09:37:27.369Z,7.92
2023-12-28T09:39:55.871Z,7.94
2023-12-28T09:42:28.758Z,7.98
2023-12-28T09:44:57.099Z,8.02
2023-12-28T09:47:25.291Z,8.01
2023-12-28T09:49:53.651Z,7.98
2023-12-28T09:52:23.251Z,7.98
2023-12-28T09:54:51.592Z,7.99
2023-12-28T09:57:20.743Z,8.07
2023-12-28T09:59:49.100Z,8.21
2023-12-28T10:02:18.026Z,8.32
2023-12-28T10:04:46.307Z,8.40
2023-12-28T10:07:14.441Z,8.55
2023-12-28T10:09:44.005Z,8.77
2023-12-28T10:12:12.321Z,8.89
2023-12-28T10:14:40.409Z,9.16
2023-12-28T10:17:08.517Z,9.27
2023-12-28T10:19:36.889Z,9.28
2023-12-28T10:22:06.023Z,9.23
2023-12-28T10:24:34.293Z,9.19
2023-12-28T10:27:04.146Z,9.13
2023-12-28T10:29:32.625Z,9.31
2023-12-28T10:32:03.281Z,9.18
2023-12-28T10:34:31.950Z,9.18
2023-12-28T10:37:03.196Z,9.20
2023-12-28T10:39:34.794Z,9.12
2023-12-28T10:42:11.313Z,9.19
2023-12-28T10:44:44.862Z,9.42
2023-12-28T10:47:18.315Z,9.38
2023-12-28T10:49:50.480Z,9.25
2023-12-28T10:52:19.009Z,9.18
2023-12-28T10:54:50.574Z,9.22
2023-12-28T10:57:28.612Z,9.26
2023-12-28T11:00:05.010Z,9.12
2023-12-28T11:02:44.066Z,9.15
2023-12-28T11:05:14.342Z,9.08
2023-12-28T11:07:44.185Z,9.11
2023-12-28T11:10:15.581Z,9.28
2023-12-28T11:12:46.872Z,9.31
2023-12-28T11:15:16.020Z,9.36
2023-12-28T11:17:45.547Z,9.50
2023-12-28T11:20:15.110Z,9.43
2023-12-28T11:22:44.053Z,9.48
2023-12-28T11:25:17.352Z,9.37
2023-12-28T11:27:48.033Z,9.21
2023-12-28T11:30:16.859Z,9.17
2023-12-28T11:32:46.061Z,9.08
2023-12-28T11:35:16.055Z,9.02
2023-12-28T11:37:49.419Z,8.96
2023-12-28T11:40:20.666Z,8.91
2023-12-28T11:42:54.932Z,8.86
2023-12-28T11:45:26.225Z,8.96
2023-12-28T11:48:02.259Z,9.10
2023-12-28T11:50:30.567Z,9.19
2023-12-28T11:52:58.851Z,9.16
2023-12-28T11:55:27.263Z,9.20
2023-12-28T11:57:56.884Z,9.30
2023-12-28T12:00:27.092Z,9.36
2023-12-28T12:02:56.857Z,9.33
2023-12-28T12:05:26.109Z,9.44
2023-12-28T12:07:54.326Z,9.46
2023-12-28T12:10:22.674Z,9.43
2023-12-28T12:12:54.567Z,9.50
2023-12-28T12:15:24.226Z,9.50
2023-12-28T12:17:52.637Z,9.52
2023-12-28T12:20:21.638Z,9.28
2023-12-28T12:22:50.481Z,9.46
2023-12-28T12:25:20.924Z,9.43
2023-12-28T12:27:49.243Z,9.37
2023-12-28T12:30:17.930Z,9.29
2023-12-28T12:34:13.264Z,9.08
2023-12-28T12:36:41.726Z,9.06
2023-12-28T12:39:12.504Z,8.93
2023-12-28T12:41:40.740Z,8.83
2023-12-28T12:44:11.360Z,8.70
2023-12-28T12:46:39.624Z,8.71
2023-12-28T12:49:08.482Z,8.57
2023-12-28T12:51:38.151Z,8.59
2023-12-28T12:54:06.599Z,8.57
2023-12-28T12:56:34.908Z,8.55
2023-12-28T12:59:03.196Z,8.59
2023-12-28T13:01:31.920Z,8.46
2023-12-28T13:04:00.792Z,8.48
2023-12-28T13:06:29.093Z,8.48
2023-12-28T13:08:58.597Z,8.47
2023-12-28T13:11:27.559Z,8.44
2023-12-28T13:13:55.826Z,8.43
2023-12-28T13:16:24.250Z,8.34
2023-12-28T13:18:52.509Z,8.41
2023-12-28T13:21:20.749Z,8.39
2023-12-28T13:23:48.917Z,8.44
2023-12-28T13:26:18.942Z,8.41
2023-12-28T13:28:47.024Z,8.44
2023-12-28T13:31:15.405Z,8.60
2023-12-28T13:33:43.767Z,8.42
2023-12-28T13:36:12.443Z,8.32
2023-12-28T13:38:40.963Z,8.22
2023-12-28T13:41:09.227Z,8.24
2023-12-28T13:43:38.671Z,8.21
2023-12-28T13:46:07.223Z,8.22
2023-12-28T13:48:37.084Z,8.30
2023-12-28T13:51:06.349Z,8.32
2023-12-28T13:53:36.651Z,8.32
2023-12-28T13:56:05.295Z,8.34
2023-12-28T13:58:33.398Z,8.37
2023-12-28T14:01:04.393Z,8.38
2023-12-28T14:03:32.980Z,8.41
2023-12-28T14:06:01.397Z,8.52
2023-12-28T14:08:29.577Z,8.50
2023-12-28T14:10:57.687Z,8.53
2023-12-28T14:13:25.819Z,8.57
2023-12-28T14:15:53.959Z,8.60
2023-12-28T14:18:23.585Z,8.56
2023-12-28T14:20:51.828Z,8.50
2023-12-28T14:23:20.872Z,8.44
2023-12-28T14:25:54.424Z,8.41
2023-12-28T14:28:24.899Z,8.46
2023-12-28T14:30:53.660Z,8.48
2023-12-28T14:33:24.151Z,8.48
2023-12-28T14:35:52.863Z,8.56
2023-12-28T14:38:21.028Z,8.54
2023-12-28T14:40:51.563Z,8.54
2023-12-28T14:43:19.624Z,8.40
2023-12-28T14:45:48.768Z,8.36
2023-12-28T14:48:17.016Z,8.30
2023-12-28T14:50:46.699Z,8.19
2023-12-28T14:53:14.853Z,8.20
2023-12-28T14:55:43.160Z,8.16
2023-12-28T14:58:11.333Z,8.09
2023-12-28T15:00:39.948Z,8.06
2023-12-28T15:03:08.138Z,8.07
2023-12-28T15:05:36.370Z,8.05
2023-12-28T15:08:06.542Z,8.06
2023-12-28T15:10:35.488Z,7.85
2023-12-28T15:13:04.212Z,7.93
2023-12-28T15:15:33.640Z,7.94
2023-12-28T15:18:02.779Z,7.93
2023-12-28T15:20:31.883Z,7.92
2023-12-28T15:23:00.552Z,7.85
2023-12-28T15:25:30.074Z,7.74
2023-12-28T15:27:58.641Z,7.68
2023-12-28T15:30:27.130Z,7.66
2023-12-28T15:32:55.449Z,7.55
2023-12-28T15:35:23.883Z,7.55
2023-12-28T15:37:52.154Z,7.46
2023-12-28T15:40:20.723Z,7.48
2023-12-28T15:42:54.472Z,7.43
2023-12-28T15:45:23.941Z,7.34
2023-12-28T15:47:52.594Z,7.25
2023-12-28T15:50:20.792Z,7.22
2023-12-28T15:52:48.934Z,7.11
2023-12-28T15:55:17.389Z,7.00
2023-12-28T15:57:46.143Z,6.64
2023-12-28T16:00:16.535Z,6.70
2023-12-28T16:02:44.836Z,6.61
2023-12-28T16:05:13.256Z,6.64
2023-12-28T16:07:41.742Z,6.57
2023-12-28T16:10:10.789Z,6.51
2023-12-28T16:12:39.110Z,6.36
2023-12-28T16:15:09.348Z,6.44
2023-12-28T16:17:39.804Z,6.43
2023-12-28T16:20:09.646Z,6.45
2023-12-28T16:22:39.492Z,6.50
2023-12-28T16:25:09.259Z,6.52
2023-12-28T16:27:37.785Z,6.59
2023-12-28T16:30:08.454Z,6.63
2023-12-28T16:32:38.301Z,6.68
2023-12-28T16:35:07.541Z,6.64
2023-12-28T16:37:35.917Z,6.79
2023-12-28T16:40:05.025Z,6.77
2023-12-28T16:42:34.202Z,6.70
2023-12-28T16:45:02.376Z,6.65
2023-12-28T16:47:33.495Z,6.62
2023-12-28T16:50:03.786Z,6.62
2023-12-28T16:52:33.018Z,6.63
2023-12-28T16:55:02.236Z,6.63
2023-12-28T16:57:30.686Z,6.54
2023-12-28T17:00:07.310Z,6.48
2023-12-28T17:02:39.903Z,6.38
2023-12-28T17:05:13.830Z,6.35
2023-12-28T17:07:42.950Z,6.34
2023-12-28T17:10:12.725Z,6.36
2023-12-28T17:12:43.440Z,6.32
2023-12-28T17:15:13.904Z,6.39
2023-12-28T17:17:43.995Z,6.46
2023-12-28T17:20:15.169Z,6.50
2023-12-28T17:22:46.306Z,6.59
2023-12-28T17:25:26.932Z,6.59
2023-12-28T17:27:56.619Z,6.68
2023-12-28T17:30:25.878Z,6.68
2023-12-28T17:36:13.913Z,6.80
2023-12-28T17:38:43.907Z,6.86
2023-12-28T17:41:18.234Z,6.87
2023-12-28T17:43:50.710Z,6.94
2023-12-28T17:46:27.091Z,7.07
2023-12-28T17:49:00.447Z,7.06
2023-12-28T17:51:30.886Z,7.12
2023-12-28T17:53:59.686Z,7.20
2023-12-28T17:56:28.047Z,7.25
2023-12-28T17:58:56.789Z,7.34
2023-12-28T18:01:25.820Z,7.39
2023-12-28T18:03:54.169Z,7.38
2023-12-28T18:06:22.532Z,7.42
2023-12-28T18:08:52.618Z,7.41
2023-12-28T18:11:20.831Z,7.41
2023-12-28T18:13:49.148Z,7.35
2023-12-28T18:16:22.073Z,7.40
2023-12-28T18:18:50.433Z,7.46
2023-12-28T18:21:18.802Z,7.50
2023-12-28T18:23:47.009Z,7.50
2023-12-28T18:26:17.077Z,7.51
2023-12-28T18:28:45.429Z,7.66
2023-12-28T18:31:15.409Z,7.71
2023-12-28T18:33:45.538Z,7.68
2023-12-28T18:36:19.095Z,7.70
2023-12-28T18:38:47.511Z,7.67
2023-12-28T18:41:17.247Z,7.68
2023-12-28T18:43:45.595Z,7.65
2023-12-28T18:46:14.431Z,7.63
2023-12-28T18:48:42.909Z,7.62
2023-12-28T18:51:11.291Z,7.60
2023-12-28T18:53:39.479Z,7.66
2023-12-28T18:56:07.788Z,7.66
2023-12-28T18:58:37.394Z,7.74
2023-12-28T19:01:06.093Z,7.74
2023-12-28T19:03:46.159Z,7.71
2023-12-28T19:06:16.551Z,7.72
2023-12-28T19:08:44.877Z,7.71
2023-12-28T19:11:14.215Z,7.69
2023-12-28T19:13:44.631Z,7.67
2023-12-28T19:16:19.003Z,7.62
2023-12-28T19:18:49.234Z,7.60
2023-12-28T19:21:18.164Z,7.53
2023-12-28T19:23:46.426Z,7.51
2023-12-28T19:26:17.469Z,7.41
2023-12-28T19:28:47.257Z,7.41
2023-12-28T19:31:16.841Z,7.40
2023-12-28T19:33:46.311Z,7.37
2023-12-28T19:36:14.634Z,7.36
2023-12-28T19:38:43.162Z,7.35
2023-12-28T19:41:11.854Z,7.37
2023-12-28T19:43:40.091Z,7.33
2023-12-28T19:46:10.842Z,7.29
2023-12-28T19:48:39.466Z,7.25
2023-12-28T19:51:08.883Z,7.25
2023-12-28T19:53:37.155Z,7.23
2023-12-28T19:56:06.449Z,7.20
2023-12-28T19:58:34.686Z,7.24
2023-12-28T20:01:02.988Z,7.22
2023-12-28T20:03:32.544Z,7.23
2023-12-28T20:06:01.449Z,7.22
2023-12-28T20:08:29.775Z,7.27
2023-12-28T20:10:58.563Z,7.29
2023-12-28T20:13:26.854Z,7.27
2023-12-28T20:15:55.337Z,7.28
2023-12-28T20:18:25.434Z,7.29
2023-12-28T20:20:55.677Z,7.33
2023-12-28T20:23:24.140Z,7.35
2023-12-28T20:25:52.338Z,7.41
2023-12-28T20:28:20.633Z,7.41
2023-12-28T20:30:49.269Z,7.43
2023-12-28T20:33:18.109Z,7.46
2023-12-28T20:35:47.265Z,7.47
2023-12-28T20:38:16.913Z,7.51
2023-12-28T20:40:45.266Z,7.49
2023-12-28T20:43:14.189Z,7.44
2023-12-28T20:45:42.767Z,7.42
2023-12-28T20:48:11.224Z,7.43
2023-12-28T20:50:39.864Z,7.44
2023-12-28T20:53:08.403Z,7.45
2023-12-28T20:55:38.285Z,7.47
2023-12-28T20:58:06.889Z,7.52
2023-12-28T21:00:37.238Z,7.61
2023-12-28T21:03:06.165Z,7.72
2023-12-28T21:05:34.432Z,7.75
2023-12-28T21:08:02.840Z,7.80
2023-12-28T21:10:33.374Z,7.85
2023-12-28T21:13:05.220Z,7.83
2023-12-28T21:15:33.745Z,7.82
2023-12-28T21:18:12.693Z,7.88
2023-12-28T21:21:02.036Z,7.90
2023-12-28T21:23:38.371Z,8.02
2023-12-28T21:26:07.034Z,8.12
2023-12-28T21:28:37.351Z,8.24
2023-12-28T21:31:06.187Z,8.24
2023-12-28T21:33:34.759Z,8.22
2023-12-28T21:36:03.420Z,8.31
2023-12-28T21:38:31.765Z,8.29
2023-12-28T21:41:00.221Z,8.24
2023-12-28T21:43:30.407Z,8.28
2023-12-28T21:46:01.277Z,8.38
2023-12-28T21:48:30.195Z,8.40
2023-12-28T21:50:59.872Z,8.41
2023-12-28T21:53:28.594Z,8.44
2023-12-28T21:55:56.954Z,8.48
2023-12-28T21:58:26.132Z,8.45
2023-12-28T22:00:59.674Z,8.47
2023-12-28T22:03:28.497Z,8.55
2023-12-28T22:05:56.980Z,8.57
2023-12-28T22:08:26.180Z,8.51
2023-12-28T22:10:55.565Z,8.53
2023-12-28T22:13:25.944Z,8.53
2023-12-28T22:16:01.244Z,8.52
2023-12-28T22:18:36.101Z,8.59
2023-12-28T22:21:06.343Z,8.64
2023-12-28T22:23:35.181Z,8.67
2023-12-28T22:26:03.405Z,8.69
2023-12-28T22:28:31.642Z,8.71
2023-12-28T22:31:01.859Z,8.71
2023-12-28T22:33:30.420Z,8.80
2023-12-28T22:37:12.566Z,8.76
2023-12-28T22:39:41.456Z,8.76
2023-12-28T22:42:09.885Z,8.75
2023-12-28T22:44:38.852Z,8.72
2023-12-28T22:47:07.201Z,8.67
2023-12-28T22:49:36.548Z,8.64
2023-12-28T22:52:08.700Z,8.63
2023-12-28T22:54:39.573Z,8.64
2023-12-28T22:57:08.489Z,8.67
2023-12-28T22:59:36.715Z,8.66
2023-12-28T23:02:05.329Z,8.73
2023-12-28T23:04:40.185Z,8.72
2023-12-28T23:07:17.168Z,8.73
2023-12-28T23:09:47.021Z,8.68
2023-12-28T23:12:15.643Z,8.67
2023-12-28T23:14:44.664Z,8.59
2023-12-28T23:17:13.568Z,8.53
2023-12-28T23:19:45.246Z,8.58
2023-12-28T23:22:14.091Z,8.61
2023-12-28T23:24:43.138Z,8.57
2023-12-28T23:27:13.096Z,8.49
2023-12-28T23:29:42.044Z,8.38
2023-12-28T23:32:10.310Z,8.38
2023-12-28T23:34:38.699Z,8.34
2023-12-28T23:37:09.405Z,8.25
2023-12-28T23:39:37.905Z,8.13
2023-12-28T23:42:07.349Z,8.07
2023-12-28T23:44:39.784Z,7.97
2023-12-28T23:47:08.161Z,7.95
2023-12-28T23:49:36.560Z,7.98
2023-12-28T23:52:05.302Z,7.99
2023-12-28T23:54:34.030Z,7.98
2023-12-28T23:57:04.623Z,7.97
2023-12-28T23:59:33.268Z,8.02
